Time;durP1;ratioP1;P1;durP2;ratioP2;P2;SDS_P1;SDS_P2;PMS_P1;PMS_P2;Temp;Humidity;BMP_temperature;BMP_pressure;BME280_temperature;BME280_humidity;BME280_pressure;Samples;Min_cycle;Max_cycle;Signal;HPM_P1;HPM_P2
2021/03/26 00:00:51;;;;;;;18.40;9.95;;;;;;;5.17;80.83;100927.97;2059446;28;20089;-77
2021/03/26 00:01:53;;;;;;;13.98;9.93;;;;;;;5.10;80.86;100925.34;2060027;28;20046;-77
2021/03/26 00:02:54;;;;;;;15.35;10.30;;;;;;;5.13;80.97;100924.50;2067316;28;20117;-76
2021/03/26 00:03:55;;;;;;;16.67;9.83;;;;;;;5.18;80.75;100924.53;2065938;28;20053;-77
2021/03/26 00:04:55;;;;;;;;;;;;;;;5.12;80.85;100927.94;2064865;28;20449;-77
2021/03/26 00:06:00;;;;;;;16.02;9.55;;;;;;;5.16;80.94;100929.66;2061041;28;19925;-77
2021/03/26 00:07:00;;;;;;;17.13;10.50;;;;;;;5.17;80.66;100928.81;2061653;28;20034;-73
2021/03/26 00:08:01;;;;;;;16.27;9.97;;;;;;;5.15;80.94;100927.94;2062128;28;20019;-73
2021/03/26 00:09:04;;;;;;;19.90;10.00;;;;;;;5.22;80.85;100929.72;2059550;28;20045;-83
2021/03/26 00:10:12;;;;;;;16.52;9.95;;;;;;;5.20;80.75;100928.84;2058457;28;20078;-77
2021/03/26 00:11:14;;;;;;;18.35;10.18;;;;;;;5.20;80.91;100931.41;2059638;28;20517;-79
2021/03/26 00:12:14;;;;;;;13.52;9.93;;;;;;;5.19;81.03;100932.28;2059150;28;20035;-78
2021/03/26 00:13:15;;;;;;;18.00;10.15;;;;;;;5.22;80.78;100924.53;2062164;28;20037;-77
2021/03/26 00:14:16;;;;;;;16.40;9.90;;;;;;;5.24;81.04;100929.69;2061471;28;20034;-77
2021/03/26 00:15:16;;;;;;;16.15;10.57;;;;;;;5.20;81.11;100926.25;2059469;28;20069;-80
2021/03/26 00:16:18;;;;;;;18.17;10.20;;;;;;;5.21;81.12;100927.97;2060140;28;20033;-79
2021/03/26 00:17:18;;;;;;;13.90;9.45;;;;;;;5.19;81.25;100923.66;2062633;28;20061;-82
2021/03/26 00:18:19;;;;;;;13.23;9.97;;;;;;;5.13;81.71;100927.09;2067305;28;20037;-80
2021/03/26 00:19:19;;;;;;;16.58;9.90;;;;;;;5.17;81.50;100921.06;2067493;28;20373;-79
2021/03/26 00:20:20;;;;;;;16.97;10.03;;;;;;;5.28;81.39;100924.56;2063987;28;20113;-79
2021/03/26 00:21:22;;;;;;;15.87;9.70;;;;;;;5.32;81.33;100919.41;2059237;28;20125;-78
2021/03/26 00:22:22;;;;;;;17.15;10.02;;;;;;;5.30;81.42;100927.13;2059298;28;20041;-78
2021/03/26 00:23:22;;;;;;;18.63;10.37;;;;;;;5.28;81.63;100921.97;2066278;28;20026;-79
2021/03/26 00:24:23;;;;;;;14.57;10.37;;;;;;;5.22;81.93;100921.97;2066947;28;20057;-79
2021/03/26 00:25:24;;;;;;;16.10;9.77;;;;;;;5.21;81.87;100921.94;2059527;28;20029;-80
2021/03/26 00:26:24;;;;;;;16.98;10.05;;;;;;;5.19;82.04;100923.66;2063128;28;20282;-79
2021/03/26 00:27:25;;;;;;;17.60;10.37;;;;;;;5.14;82.09;100921.91;2062460;28;20054;-80
2021/03/26 00:28:25;;;;;;;15.53;9.80;;;;;;;5.18;81.89;100925.38;2059328;28;20034;-81
2021/03/26 00:29:25;;;;;;;18.73;10.13;;;;;;;5.12;82.14;100922.78;2059705;28;20444;-79
2021/03/26 00:30:27;;;;;;;17.87;10.13;;;;;;;5.04;82.43;100925.31;2063969;28;20026;-80
2021/03/26 00:31:27;;;;;;;14.77;10.05;;;;;;;5.05;82.56;100923.59;2061331;28;20026;-80
2021/03/26 00:32:27;;;;;;;14.40;9.87;;;;;;;5.02;82.85;100924.44;2067285;28;20542;-80
2021/03/26 00:33:27;;;;;;;15.77;9.60;;;;;;;4.98;83.08;100931.31;2067386;28;20109;-80
2021/03/26 00:34:29;;;;;;;18.03;9.77;;;;;;;4.90;83.33;100922.69;2060577;28;20433;-80
2021/03/26 00:35:30;;;;;;;18.20;10.20;;;;;;;4.94;83.41;100919.28;2067473;28;20109;-81
2021/03/26 00:36:31;;;;;;;24.45;11.00;;;;;;;4.88;nan;100916.63;2065059;28;20523;-81
2021/03/26 00:37:32;;;;;;;16.42;10.50;;;;;;;4.84;83.63;100922.66;2059742;28;20465;-82
2021/03/26 00:38:32;;;;;;;18.50;10.50;;;;;;;4.85;83.75;100923.50;2064672;28;20069;-82
2021/03/26 00:39:33;;;;;;;16.55;10.70;;;;;;;4.86;83.86;100915.75;2061165;28;20900;-81
2021/03/26 00:40:33;;;;;;;15.97;10.70;;;;;;;4.86;83.57;100923.50;2060161;28;20054;-81
2021/03/26 00:41:35;;;;;;;17.20;10.73;;;;;;;4.92;83.78;100918.38;2060212;28;20054;-78
2021/03/26 00:42:35;;;;;;;;;;;;;;;4.99;83.51;100916.72;2062947;28;20032;-80
2021/03/26 00:43:35;;;;;;;15.13;9.95;;;;;;;4.99;83.50;100917.56;2062461;28;19984;-80
2021/03/26 00:44:36;;;;;;;16.77;10.43;;;;;;;4.90;83.63;100917.50;2060661;28;20089;-80
2021/03/26 00:45:37;;;;;;;16.50;10.70;;;;;;;4.89;83.73;100910.63;2061404;28;20037;-80
2021/03/26 00:46:39;;;;;;;16.65;10.38;;;;;;;4.94;83.86;100908.06;2059223;28;20027;-79
2021/03/26 00:47:40;;;;;;;17.45;9.93;;;;;;;4.95;83.73;100918.38;2061908;28;20548;-79
2021/03/26 00:48:40;;;;;;;15.53;10.80;;;;;;;4.98;83.39;100909.81;2063754;28;20057;-80
2021/03/26 00:49:41;;;;;;;18.27;10.20;;;;;;;4.92;83.62;100913.22;2065145;28;20496;-79
2021/03/26 00:50:44;;;;;;;17.98;10.15;;;;;;;4.92;83.61;100909.75;2059437;28;20029;-80
2021/03/26 00:51:44;;;;;;;16.70;10.10;;;;;;;4.91;83.63;100908.91;2057757;28;20492;-79
2021/03/26 00:52:46;;;;;;;19.47;10.10;;;;;;;4.91;83.69;100920.94;2057573;28;20027;-80
2021/03/26 00:53:46;;;;;;;18.23;11.23;;;;;;;4.90;83.77;100919.25;2059135;28;20046;-80
2021/03/26 00:54:46;;;;;;;20.63;11.73;;;;;;;4.86;83.75;100910.59;2063505;28;20034;-80
2021/03/26 00:55:47;;;;;;;21.37;10.93;;;;;;;4.83;83.82;100921.78;2065028;28;20030;-79
2021/03/26 00:56:48;;;;;;;15.65;10.50;;;;;;;4.82;83.83;100914.88;2063347;28;20077;-80
2021/03/26 00:57:48;;;;;;;17.23;10.93;;;;;;;4.77;84.00;100914.00;2049574;28;20031;-79
2021/03/26 00:58:48;;;;;;;16.87;11.13;;;;;;;4.76;84.34;100920.03;2060623;28;20062;-82
2021/03/26 00:59:49;;;;;;;16.53;10.70;;;;;;;4.72;84.39;100917.44;2064695;28;20428;-80
2021/03/26 01:00:51;;;;;;;19.17;10.47;;;;;;;4.70;84.54;100921.72;2057289;28;20043;-81
2021/03/26 01:01:51;;;;;;;15.25;10.20;;;;;;;4.71;84.44;100921.72;2057531;28;20082;-82
2021/03/26 01:02:52;;;;;;;15.30;10.37;;;;;;;4.72;84.35;100923.44;2057965;28;20031;-81
2021/03/26 01:03:52;;;;;;;20.20;11.43;;;;;;;4.76;84.70;100919.16;2057502;28;20027;-81
2021/03/26 01:04:52;;;;;;;20.23;10.73;;;;;;;4.79;84.48;100921.75;2058013;28;20101;-80
2021/03/26 01:05:57;;;;;;;15.80;10.90;;;;;;;4.78;84.56;100920.03;2058016;28;20042;-82
2021/03/26 01:06:58;;;;;;;21.73;10.80;;;;;;;4.74;84.64;100923.47;2057778;28;20027;-81
2021/03/26 01:07:58;;;;;;;17.52;10.85;;;;;;;4.72;84.88;100922.59;2058154;28;20105;-81
2021/03/26 01:08:59;;;;;;;15.10;10.57;;;;;;;4.70;84.95;100926.88;2057663;28;20026;-81
2021/03/26 01:09:59;;;;;;;14.35;10.43;;;;;;;4.80;84.60;100926.91;2057631;28;20281;-79
2021/03/26 01:11:07;;;;;;;16.27;10.80;;;;;;;4.78;84.64;100923.50;2057022;28;20069;-81
2021/03/26 01:12:08;;;;;;;20.92;11.48;;;;;;;4.74;84.62;100916.56;2057289;28;20041;-81
2021/03/26 01:13:09;;;;;;;18.00;11.13;;;;;;;4.68;84.61;100922.56;2056981;28;20035;-81
2021/03/26 01:14:20;;;;;;;21.05;11.52;;;;;;;4.62;84.98;100919.97;2056921;28;20035;-80
2021/03/26 01:15:23;;;;;;;15.77;10.30;;;;;;;4.64;85.08;100919.97;2058232;28;20025;-82
2021/03/26 01:16:27;;;;;;;16.08;10.80;;;;;;;4.62;85.30;100919.06;2057508;28;20113;-81
2021/03/26 01:17:27;;;;;;;18.55;10.70;;;;;;;4.63;85.09;100918.22;2057588;28;20041;-81
2021/03/26 01:18:35;;;;;;;16.80;10.43;;;;;;;4.70;84.89;100911.38;2057277;28;20497;-83
2021/03/26 01:19:39;;;;;;;17.15;10.30;;;;;;;4.62;85.06;100907.03;2055431;28;20022;-82
2021/03/26 01:20:39;;;;;;;16.25;10.32;;;;;;;4.59;85.35;100916.50;2056576;28;20058;-82
2021/03/26 01:21:41;;;;;;;17.63;11.00;;;;;;;4.59;85.16;100916.50;2057306;28;20031;-82
2021/03/26 01:22:41;;;;;;;18.80;10.85;;;;;;;4.53;85.44;100914.75;2057287;28;20081;-82
2021/03/26 01:23:43;;;;;;;18.45;11.15;;;;;;;4.46;85.83;100915.53;2057623;28;20429;-84
2021/03/26 01:24:43;;;;;;;21.38;11.18;;;;;;;4.45;85.86;100908.66;2057111;28;20070;-83
2021/03/26 01:25:44;;;;;;;17.33;11.37;;;;;;;4.39;85.95;100912.06;2057897;28;20054;-84
2021/03/26 01:26:45;;;;;;;18.60;10.45;;;;;;;4.36;86.18;100914.63;2057239;28;20030;-84
2021/03/26 01:27:45;;;;;;;17.02;10.93;;;;;;;4.36;86.29;100904.28;2057772;28;20026;-83
2021/03/26 01:28:46;;;;;;;20.93;11.53;;;;;;;4.36;86.39;100909.47;2057655;28;20030;-82
2021/03/26 01:29:46;;;;;;;18.17;11.30;;;;;;;4.34;86.30;100906.88;2057455;28;20363;-81
2021/03/26 01:30:48;;;;;;;21.43;10.83;;;;;;;4.38;86.29;100906.88;2057367;28;20027;-82
2021/03/26 01:31:48;;;;;;;;;;;;;;;4.31;86.39;100899.09;2057827;28;20026;-79
2021/03/26 01:32:49;;;;;;;15.10;11.15;;;;;;;4.31;86.41;100900.84;2056838;28;19910;-79
2021/03/26 01:33:49;;;;;;;21.13;11.23;;;;;;;4.31;86.68;100906.84;2055243;28;20456;-79
2021/03/26 01:34:49;;;;;;;19.00;11.57;;;;;;;4.37;86.43;100911.19;2057425;28;20297;-80
2021/03/26 01:35:50;;;;;;;16.80;10.90;;;;;;;4.31;86.48;100900.84;2057463;28;20031;-80
2021/03/26 01:36:51;;;;;;;17.35;10.88;;;;;;;4.34;86.42;100904.31;2057355;28;20031;-80
2021/03/26 01:37:51;;;;;;;15.50;10.97;;;;;;;4.38;86.41;100904.28;2057350;28;20097;-78
2021/03/26 01:38:52;;;;;;;21.40;11.13;;;;;;;4.31;86.64;100896.53;2057649;28;20070;-79
2021/03/26 01:39:52;;;;;;;19.98;10.95;;;;;;;4.38;86.67;100901.72;2057403;28;20027;-77
2021/03/26 01:40:57;;;;;;;18.17;11.80;;;;;;;4.29;86.70;100893.06;2057448;28;20031;-81
2021/03/26 01:41:57;;;;;;;19.00;11.02;;;;;;;4.34;86.82;100893.09;2057369;28;20023;-79
2021/03/26 01:43:07;;;;;;;16.70;11.13;;;;;;;4.30;86.98;100892.22;2057492;28;20054;-79
2021/03/26 01:44:09;;;;;;;17.25;11.20;;;;;;;4.30;87.24;100891.38;2057625;28;20527;-82
2021/03/26 01:45:23;;;;;;;15.95;11.55;;;;;;;4.34;87.18;100885.34;2057296;28;20030;-82
2021/03/26 01:46:26;;;;;;;21.48;11.50;;;;;;;4.41;87.17;100894.00;2057593;28;20031;-81
2021/03/26 01:47:27;;;;;;;18.48;11.38;;;;;;;4.39;86.93;100891.44;2057211;28;20041;-81
2021/03/26 01:48:31;;;;;;;;;;;;;;;4.33;87.17;100893.94;2057786;28;20089;-81
2021/03/26 01:49:31;;;;;;;20.20;11.60;;;;;;;4.33;87.61;100888.78;2050124;28;19958;-82
2021/03/26 01:50:33;;;;;;;19.60;11.60;;;;;;;4.30;87.42;100883.63;2056825;28;20022;-82
2021/03/26 01:51:44;;;;;;;22.35;11.55;;;;;;;4.29;87.46;100887.06;2056656;28;20098;-83
2021/03/26 01:52:44;;;;;;;21.25;11.63;;;;;;;4.24;87.50;100887.03;2057424;28;20492;-79
2021/03/26 01:53:45;;;;;;;19.00;12.43;;;;;;;4.20;87.83;100891.31;2056971;28;20187;-79
2021/03/26 01:54:45;;;;;;;19.50;11.63;;;;;;;4.21;87.75;100887.00;2056497;28;20505;-79
2021/03/26 01:55:47;;;;;;;19.57;11.80;;;;;;;4.18;87.74;100882.69;2056968;28;20026;-79
2021/03/26 01:56:48;;;;;;;16.98;11.63;;;;;;;4.15;87.85;100884.38;2057174;28;20113;-80
2021/03/26 01:57:48;;;;;;;17.33;12.33;;;;;;;4.15;88.11;100889.53;2056886;28;20536;-78
2021/03/26 01:58:49;;;;;;;23.05;12.85;;;;;;;4.16;88.05;100880.94;2057705;28;20015;-79
2021/03/26 01:59:49;;;;;;;25.75;13.45;;;;;;;4.17;87.96;100888.69;2057298;28;20066;-79
2021/03/26 02:00:56;;;;;;;19.77;13.10;;;;;;;4.17;87.90;100892.97;2057228;28;20031;-79
2021/03/26 02:02:00;;;;;;;19.15;11.88;;;;;;;4.26;87.64;100887.88;2057350;28;20029;-78
2021/03/26 02:03:07;;;;;;;22.75;12.63;;;;;;;4.25;87.25;100885.28;2057295;28;20026;-82
2021/03/26 02:04:08;;;;;;;22.52;13.35;;;;;;;4.10;87.41;100884.34;2057735;28;20022;-84
2021/03/26 02:05:10;;;;;;;21.17;13.38;;;;;;;4.05;87.83;100886.00;2057035;28;20420;-84
2021/03/26 02:06:15;;;;;;;;;;;;;;;3.92;87.87;100879.91;2057611;28;20039;-85
2021/03/26 02:07:18;;;;;;;21.38;13.07;;;;;;;3.92;88.21;100885.06;2057215;28;20273;-85
2021/03/26 02:08:45;;;;;;;23.83;13.68;;;;;;;3.87;88.25;100885.03;2056904;28;20521;-86
2021/03/26 02:09:46;;;;;;;21.80;14.00;;;;;;;3.82;88.50;100883.25;2054963;28;20057;-80
2021/03/26 02:10:46;;;;;;;25.95;15.00;;;;;;;3.74;88.63;100876.31;2053946;28;20634;-81
2021/03/26 02:12:00;;;;;;;20.13;14.53;;;;;;;3.64;88.59;100871.94;2055418;28;20066;-82
2021/03/26 02:13:04;;;;;;;29.75;15.43;;;;;;;3.57;88.83;100876.16;2056648;28;20037;-81
2021/03/26 02:14:11;;;;;;;22.10;14.65;;;;;;;3.51;89.13;100878.69;2057072;28;20102;-81
2021/03/26 02:15:20;;;;;;;22.02;14.77;;;;;;;3.45;89.37;100881.19;2055661;28;20488;-83
2021/03/26 02:16:21;;;;;;;24.50;14.73;;;;;;;3.41;89.46;100880.28;2056983;28;20112;-82
2021/03/26 02:17:26;;;;;;;23.77;15.52;;;;;;;3.35;89.69;100880.25;2053977;28;20477;-82
2021/03/26 02:18:33;;;;;;;21.45;15.05;;;;;;;3.33;89.93;100876.78;2049425;28;20074;-80
2021/03/26 02:19:41;;;;;;;24.95;15.13;;;;;;;3.42;90.16;100886.34;2052067;28;20035;-83
2021/03/26 02:20:46;;;;;;;22.83;14.27;;;;;;;3.42;90.09;100876.88;2057132;28;20019;-82
2021/03/26 02:21:46;;;;;;;24.65;14.15;;;;;;;3.42;90.22;100879.44;2057790;28;20054;-82
2021/03/26 02:22:47;;;;;;;21.63;14.43;;;;;;;3.40;90.46;100882.88;2055652;28;20717;-81
2021/03/26 02:23:48;;;;;;;22.50;14.43;;;;;;;3.41;90.60;100885.44;2056553;28;20034;-81
2021/03/26 02:24:49;;;;;;;25.65;14.68;;;;;;;3.38;90.76;100877.69;2057605;28;20026;-81
2021/03/26 02:25:50;;;;;;;;;;;;;;;3.37;90.97;100877.66;2057085;28;20030;-81
2021/03/26 02:26:52;;;;;;;23.58;13.50;;;;;;;3.34;90.97;100872.47;2056753;28;19953;-80
2021/03/26 02:27:53;;;;;;;27.45;15.05;;;;;;;3.40;91.20;100877.72;2056671;28;20018;-80
2021/03/26 02:28:54;;;;;;;21.07;13.73;;;;;;;3.41;91.22;100875.16;2057186;28;20034;-80
2021/03/26 02:29:55;;;;;;;23.70;14.02;;;;;;;3.42;91.32;100874.31;2056916;28;20119;-80
2021/03/26 02:30:58;;;;;;;25.73;14.85;;;;;;;3.51;90.90;100876.13;2056488;28;20038;-80
2021/03/26 02:32:14;;;;;;;21.60;14.13;;;;;;;3.47;91.03;100874.34;2052816;28;20031;-80
2021/03/26 02:33:15;;;;;;;21.17;13.73;;;;;;;3.36;91.45;100871.66;2056493;28;20031;-80
2021/03/26 02:34:15;;;;;;;24.80;14.50;;;;;;;3.40;91.46;100867.41;2057076;28;20031;-81
2021/03/26 02:35:21;;;;;;;25.03;14.37;;;;;;;3.42;91.50;100876.88;2057023;28;20038;-81
2021/03/26 02:36:37;;;;;;;24.10;13.98;;;;;;;3.44;91.40;100871.72;2057100;28;20389;-80
2021/03/26 02:37:41;;;;;;;20.75;14.85;;;;;;;3.39;91.37;100871.69;2056010;28;20039;-80
2021/03/26 02:38:54;;;;;;;24.15;14.68;;;;;;;3.32;91.75;100869.91;2057185;28;20491;-79
2021/03/26 02:39:55;;;;;;;27.75;15.00;;;;;;;3.32;91.87;100875.06;2056971;28;20063;-79
2021/03/26 02:41:06;;;;;;;23.17;14.00;;;;;;;3.30;91.93;100873.31;2056309;28;20035;-81
2021/03/26 02:42:21;;;;;;;20.98;14.27;;;;;;;3.23;92.25;100880.09;2050367;28;20042;-81
2021/03/26 02:43:49;;;;;;;22.52;14.20;;;;;;;3.18;92.23;100872.34;2053554;28;20030;-78
2021/03/26 02:45:04;;;;;;;26.52;13.38;;;;;;;3.17;92.33;100880.91;2056409;28;20035;-78
2021/03/26 02:46:37;;;;;;;23.08;14.13;;;;;;;3.14;92.57;100880.00;2055763;28;20034;-78
2021/03/26 02:47:59;;;;;;;21.05;14.05;;;;;;;3.14;92.76;100877.44;2052419;28;20382;-80
2021/03/26 02:49:12;;;;;;;23.50;14.52;;;;;;;3.11;92.96;100878.28;2057029;28;20381;-79
2021/03/26 02:50:24;;;;;;;22.83;14.32;;;;;;;3.08;93.02;100883.38;2056693;28;20042;-79
2021/03/26 02:51:38;;;;;;;23.65;15.15;;;;;;;3.10;92.89;100874.81;2056115;28;20041;-79
2021/03/26 02:52:49;;;;;;;21.65;14.20;;;;;;;3.08;93.21;100876.53;2056750;28;20035;-79
2021/03/26 02:54:17;;;;;;;23.30;14.80;;;;;;;3.19;93.39;100873.19;2056592;28;20422;-78
2021/03/26 02:55:29;;;;;;;26.55;15.73;;;;;;;3.17;93.21;100880.91;2056896;28;20081;-79
2021/03/26 02:56:45;;;;;;;24.15;15.35;;;;;;;3.26;93.35;100870.69;2052646;28;20029;-79
2021/03/26 02:57:57;;;;;;;21.02;14.88;;;;;;;3.23;93.18;100869.81;2057263;28;20031;-79
2021/03/26 02:59:01;;;;;;;;;;;;;;;3.15;93.19;100872.28;2057183;28;20085;-79
2021/03/26 03:00:24;;;;;;;24.20;14.55;;;;;;;3.06;93.25;100872.19;2056868;28;20590;-79
2021/03/26 03:01:40;;;;;;;23.38;14.90;;;;;;;3.22;93.28;100865.50;2044985;29;20039;-80
2021/03/26 03:02:42;;;;;;;22.05;14.50;;;;;;;3.25;93.54;100868.13;2050749;28;20405;-77
2021/03/26 03:03:46;;;;;;;25.83;15.43;;;;;;;3.21;93.49;100879.22;2056983;28;20038;-76
2021/03/26 03:05:01;;;;;;;25.65;15.70;;;;;;;3.26;93.56;100867.28;2056770;28;20106;-77
2021/03/26 03:06:24;;;;;;;24.23;15.35;;;;;;;3.30;93.55;100870.75;2056874;28;20105;-77
2021/03/26 03:07:31;;;;;;;25.42;14.73;;;;;;;3.39;93.43;100873.41;2048056;28;20482;-83
2021/03/26 03:08:34;;;;;;;26.20;15.70;;;;;;;3.37;93.23;100869.94;2055619;28;20023;-85
2021/03/26 03:09:38;;;;;;;22.80;15.73;;;;;;;3.40;93.36;100870.84;2056658;28;20062;-86
2021/03/26 03:10:48;;;;;;;24.60;15.60;;;;;;;3.38;93.18;100877.69;2056480;28;20034;-86
2021/03/26 03:12:08;;;;;;;24.83;15.10;;;;;;;3.38;93.15;100871.69;2055806;28;20027;-84
2021/03/26 03:13:16;;;;;;;25.20;15.48;;;;;;;3.35;93.30;100874.22;2056684;28;20563;-84
2021/03/26 03:14:24;;;;;;;30.08;15.40;;;;;;;3.35;93.35;100872.50;2053283;28;20473;-84
2021/03/26 03:15:29;;;;;;;23.10;15.40;;;;;;;3.33;93.57;100870.78;2053243;28;20045;-84
2021/03/26 03:16:51;;;;;;;24.98;15.38;;;;;;;3.39;93.57;100874.25;2055813;28;20030;-83
2021/03/26 03:18:17;;;;;;;29.30;15.77;;;;;;;3.35;93.33;100871.63;2056954;28;20692;-83
2021/03/26 03:19:32;;;;;;;22.83;15.10;;;;;;;3.39;93.32;100871.69;2052367;28;20082;-83
2021/03/26 03:20:52;;;;;;;24.25;15.40;;;;;;;3.35;93.36;100869.94;2056886;28;20023;-83
2021/03/26 03:22:01;;;;;;;26.25;15.55;;;;;;;3.45;93.45;100881.19;2055491;28;20030;-83
2021/03/26 03:23:24;;;;;;;27.67;16.15;;;;;;;3.41;93.24;100870.00;2056843;28;20547;-83
2021/03/26 03:24:46;;;;;;;25.70;15.88;;;;;;;3.43;93.33;100868.31;2056949;28;20034;-83
2021/03/26 03:25:47;;;;;;;27.98;16.63;;;;;;;3.46;93.22;100877.75;2055954;28;20038;-83
2021/03/26 03:26:53;;;;;;;27.07;15.90;;;;;;;3.43;93.26;100868.31;2056830;28;20027;-83
2021/03/26 03:27:59;;;;;;;21.55;16.15;;;;;;;3.38;93.22;100869.94;2056469;28;20106;-83
2021/03/26 03:29:32;;;;;;;21.67;15.93;;;;;;;3.43;93.93;100875.16;2056144;28;20046;-83
2021/03/26 03:31:01;;;;;;;22.15;16.50;;;;;;;3.38;93.37;100864.78;2043598;28;20035;-83
2021/03/26 03:32:21;;;;;;;25.27;16.23;;;;;;;3.40;93.57;100868.25;2053313;28;20117;-83
2021/03/26 03:33:35;;;;;;;24.77;16.13;;;;;;;3.31;93.71;100867.31;2049329;28;20460;-84
2021/03/26 03:34:42;;;;;;;29.38;16.65;;;;;;;3.33;93.86;100868.19;2048970;28;20106;-83
2021/03/26 03:35:59;;;;;;;31.35;18.55;;;;;;;3.26;93.94;100868.13;2048881;28;20047;-83
2021/03/26 03:37:33;;;;;;;23.75;16.50;;;;;;;3.36;93.96;100866.53;2048793;28;20638;-83
2021/03/26 03:38:57;;;;;;;25.75;16.15;;;;;;;3.35;94.01;100861.31;2048693;28;20482;-84
2021/03/26 03:40:05;;;;;;;26.25;16.42;;;;;;;3.38;94.04;100869.09;2048245;28;20043;-84
2021/03/26 03:41:30;;;;;;;25.90;17.40;;;;;;;3.39;93.93;100868.25;2048181;29;20174;-84
2021/03/26 03:42:41;;;;;;;21.77;15.80;;;;;;;3.25;94.25;100871.53;2048892;28;20057;-84
2021/03/26 03:43:55;;;;;;;25.15;16.67;;;;;;;3.21;94.46;100872.38;2048935;28;20096;-84
2021/03/26 03:45:36;;;;;;;27.15;16.38;;;;;;;3.31;94.44;100857.88;2048937;28;20034;-84
2021/03/26 03:46:46;;;;;;;25.05;16.25;;;;;;;3.46;94.17;100856.31;2045566;29;20027;-84
2021/03/26 03:48:02;;;;;;;25.92;16.60;;;;;;;3.34;94.18;100863.06;2056643;28;20030;-85
2021/03/26 03:49:30;;;;;;;27.08;16.50;;;;;;;3.41;94.17;100861.41;2052826;28;20030;-84
2021/03/26 03:50:33;;;;;;;23.52;15.88;;;;;;;3.53;93.67;100856.34;2054672;28;20027;-85
2021/03/26 03:51:52;;;;;;;25.63;16.90;;;;;;;3.43;93.84;100854.53;2056401;28;20030;-85
2021/03/26 03:53:03;;;;;;;24.80;17.30;;;;;;;3.31;94.34;100852.72;2056800;28;20053;-85
2021/03/26 03:54:05;;;;;;;29.35;17.30;;;;;;;3.26;94.80;100851.81;2056557;28;20106;-85
2021/03/26 03:55:16;;;;;;;31.35;17.25;;;;;;;3.40;94.93;100857.94;2056821;28;20042;-85
2021/03/26 03:56:36;;;;;;;25.30;17.75;;;;;;;3.30;94.80;100856.13;2056839;28;20077;-85
2021/03/26 03:57:43;;;;;;;27.25;17.17;;;;;;;3.33;94.75;100851.00;2050421;28;20031;-84
2021/03/26 03:58:53;;;;;;;26.17;17.13;;;;;;;3.37;95.11;100852.78;2054677;28;20477;-85
2021/03/26 04:00:00;;;;;;;30.83;18.40;;;;;;;3.26;94.89;100849.22;2056855;28;20078;-85
2021/03/26 04:01:29;;;;;;;26.55;18.00;;;;;;;3.21;95.12;100851.75;2056019;28;20022;-84
2021/03/26 04:02:54;;;;;;;27.90;17.75;;;;;;;3.18;95.38;100856.88;2049457;28;20466;-84
2021/03/26 04:04:19;;;;;;;28.17;17.17;;;;;;;3.19;95.43;100853.47;2056977;28;20030;-85
2021/03/26 04:05:31;;;;;;;29.88;17.58;;;;;;;3.21;95.43;100856.03;2056312;28;20027;-85
2021/03/26 04:06:49;;;;;;;25.50;16.73;;;;;;;3.18;95.55;100853.44;2056230;28;20671;-84
2021/03/26 04:08:27;;;;;;;29.33;17.83;;;;;;;3.24;95.35;100850.94;2056734;28;20386;-85
2021/03/26 04:09:35;;;;;;;32.30;16.88;;;;;;;3.22;95.19;100844.88;2055506;28;20464;-84
2021/03/26 04:10:37;;;;;;;27.15;17.65;;;;;;;3.16;95.38;100845.69;2056250;28;20478;-84
2021/03/26 04:11:47;;;;;;;26.90;18.95;;;;;;;3.16;95.71;100845.69;2056203;28;20117;-84
2021/03/26 04:12:54;;;;;;;27.25;17.95;;;;;;;3.19;95.82;100844.84;2056796;28;20031;-84
2021/03/26 04:14:06;;;;;;;29.65;19.08;;;;;;;3.21;95.63;100848.31;2056194;28;20535;-85
2021/03/26 04:15:22;;;;;;;34.65;18.45;;;;;;;3.23;95.72;100844.88;2056832;28;20037;-84
2021/03/26 04:16:25;;;;;;;25.73;18.48;;;;;;;3.28;95.39;100844.97;2056595;28;20054;-84
2021/03/26 04:17:28;;;;;;;27.40;18.45;;;;;;;3.28;95.53;100847.53;2056586;28;20061;-84
2021/03/26 04:18:36;;;;;;;32.08;19.15;;;;;;;3.32;96.04;100844.13;2056686;28;20039;-84
2021/03/26 04:19:43;;;;;;;28.70;19.63;;;;;;;3.47;95.70;100840.84;2056640;28;20022;-85
2021/03/26 04:20:51;;;;;;;26.92;18.17;;;;;;;3.35;95.85;100840.72;2056821;28;20035;-85
2021/03/26 04:21:59;;;;;;;28.45;18.67;;;;;;;3.38;95.75;100844.19;2056410;28;20106;-84
2021/03/26 04:23:23;;;;;;;33.78;19.77;;;;;;;3.27;96.06;100845.81;2056680;28;20029;-85
2021/03/26 04:24:35;;;;;;;30.63;19.88;;;;;;;3.17;96.48;100844.00;2056963;28;20049;-85
2021/03/26 04:25:39;;;;;;;35.22;20.77;;;;;;;3.13;96.60;100843.09;2058110;28;20026;-84
2021/03/26 04:26:46;;;;;;;31.33;20.35;;;;;;;3.17;96.87;100844.00;2051131;28;20405;-85
2021/03/26 04:27:53;;;;;;;29.20;20.42;;;;;;;3.22;96.77;100842.31;2058111;28;20029;-85
2021/03/26 04:29:13;;;;;;;30.42;20.02;;;;;;;3.10;97.04;100835.31;2058105;28;20095;-84
2021/03/26 04:30:19;;;;;;;29.38;20.80;;;;;;;3.05;97.19;100837.84;2058011;28;20035;-85
2021/03/26 04:31:29;;;;;;;31.83;20.73;;;;;;;3.03;97.42;100843.84;2057754;28;20022;-84
2021/03/26 04:32:29;;;;;;;31.40;21.15;;;;;;;2.98;97.31;100838.63;2049992;28;20053;-85
2021/03/26 04:33:30;;;;;;;31.50;21.60;;;;;;;3.09;97.56;100842.16;2050099;28;20037;-85
2021/03/26 04:34:30;;;;;;;37.75;22.02;;;;;;;3.07;97.25;100841.31;2057476;28;20089;-85
2021/03/26 04:35:31;;;;;;;31.38;22.13;;;;;;;3.08;97.44;100840.47;2058045;28;20138;-85
2021/03/26 04:36:41;;;;;;;30.10;21.70;;;;;;;3.08;97.49;100845.63;2057977;28;20058;-85
2021/03/26 04:37:41;;;;;;;32.67;21.48;;;;;;;3.02;97.59;100845.53;2058016;28;20429;-85
2021/03/26 04:38:49;;;;;;;31.13;22.20;;;;;;;3.16;97.29;100844.84;2057647;28;20035;-84
2021/03/26 04:40:00;;;;;;;34.65;22.15;;;;;;;3.19;96.94;100855.16;2057927;28;20389;-85
2021/03/26 04:41:08;;;;;;;34.45;23.02;;;;;;;3.13;97.02;100848.25;2049654;29;20031;-85
2021/03/26 04:42:13;;;;;;;32.75;22.08;;;;;;;3.07;97.05;100845.59;2049998;28;20062;-85
2021/03/26 04:43:28;;;;;;;37.30;23.15;;;;;;;3.08;96.99;100843.03;2050061;28;20081;-85
2021/03/26 04:44:57;;;;;;;33.90;21.45;;;;;;;3.06;96.94;100852.47;2057746;28;20453;-85
2021/03/26 04:46:19;;;;;;;33.17;21.05;;;;;;;3.01;97.01;100842.94;2057748;28;20425;-85
2021/03/26 04:47:37;;;;;;;34.65;21.50;;;;;;;2.97;97.04;100852.34;2057746;28;20030;-84
2021/03/26 04:48:45;;;;;;;31.10;21.38;;;;;;;2.90;97.33;100855.69;2057581;28;20087;-84
2021/03/26 04:50:03;;;;;;;35.90;22.08;;;;;;;3.04;97.24;100851.56;2057050;28;20027;-84
2021/03/26 04:51:15;;;;;;;33.95;22.23;;;;;;;2.96;97.19;100851.47;2056990;28;20094;-84
2021/03/26 04:52:21;;;;;;;;;;;;;;;2.88;97.45;100858.25;2058076;28;20061;-84
2021/03/26 04:53:27;;;;;;;35.72;22.08;;;;;;;2.88;97.66;100852.25;2057159;28;20005;-85
2021/03/26 04:54:43;;;;;;;36.80;22.77;;;;;;;2.85;97.67;100854.78;2057223;28;20070;-84
2021/03/26 04:55:51;;;;;;;36.38;22.95;;;;;;;2.89;97.89;100860.00;2057179;28;20054;-84
2021/03/26 04:57:01;;;;;;;37.15;23.40;;;;;;;2.88;97.86;100862.56;2056877;28;20026;-85
2021/03/26 04:58:08;;;;;;;43.85;23.60;;;;;;;2.76;98.03;100848.69;2057940;28;20030;-85
2021/03/26 04:59:11;;;;;;;41.53;24.88;;;;;;;2.78;98.16;100854.72;2057758;28;20037;-84
2021/03/26 05:00:18;;;;;;;35.55;23.25;;;;;;;2.77;98.21;100859.81;2057579;28;20027;-84
2021/03/26 05:01:18;;;;;;;36.08;23.83;;;;;;;2.69;98.31;100853.72;2056290;28;20026;-85
2021/03/26 05:02:21;;;;;;;39.87;23.93;;;;;;;2.78;98.54;100859.00;2056261;28;20035;-85
2021/03/26 05:03:27;;;;;;;43.67;24.95;;;;;;;2.85;98.52;100847.06;2056641;28;20720;-85
2021/03/26 05:04:36;;;;;;;38.17;23.77;;;;;;;2.84;98.62;100855.63;2054731;28;20050;-85
2021/03/26 05:05:42;;;;;;;39.30;24.30;;;;;;;2.99;98.34;100854.94;2051480;28;20113;-84
2021/03/26 05:06:48;;;;;;;37.92;23.55;;;;;;;3.01;98.22;100853.25;2054338;28;20034;-84
2021/03/26 05:07:52;;;;;;;36.72;24.33;;;;;;;3.02;97.92;100853.25;2053799;28;20848;-85
2021/03/26 05:09:00;;;;;;;36.88;23.95;;;;;;;3.14;97.47;100849.94;2051277;28;20118;-84